Ideal Beach, New Jersey
Current Conditions -  °F | °C
As of 1:15 AM on Thursday 23 Oct 2014 (Local Time) from KLDJ Reporting Station
Overcast Overcast  
Wind Chill: 56°   Ceiling: 3200
Heat Index: 56°   Visibility: 10mi
Dew Point: 50°   Wind: 9mph
Humidity: 82%   Direction: 20°NNE
Pressure: 29.74"   Gusts: 23mph
Location:  40.4416°N, 74.1294°W
Report Text: KLDJ 230515Z AUTO 02008G20KT 10SM SCT023 OVC032 13/10 A2974 RMK AO2 T01320102
Loading
Personal Weather Stations






























Interactive Weather Map
Tropical Storm Tracking
New forecast layout! Learn more

10-Day Weather Forecast

Advertisements
Track Severe Weather on mobile